sensor_id;sensor_type;location;lat;lon;timestamp;P1;durP1;ratioP1;P2;durP2;ratioP2
38182;SDS011;23991;52.430;10.586;2023-02-24T00:01:42;23.85;;;5.60;;
38182;SDS011;23991;52.430;10.586;2023-02-24T00:04:15;13.35;;;3.28;;
38182;SDS011;23991;52.430;10.586;2023-02-24T00:06:42;23.13;;;4.15;;
38182;SDS011;23991;52.430;10.586;2023-02-24T00:09:12;20.42;;;3.28;;
38182;SDS011;23991;52.430;10.586;2023-02-24T00:11:42;17.55;;;2.97;;
38182;SDS011;23991;52.430;10.586;2023-02-24T00:14:21;18.55;;;3.78;;
38182;SDS011;23991;52.430;10.586;2023-02-24T00:16:48;15.13;;;3.30;;
38182;SDS011;23991;52.430;10.586;2023-02-24T00:19:16;21.40;;;3.47;;
38182;SDS011;23991;52.430;10.586;2023-02-24T00:21:43;17.57;;;3.87;;
38182;SDS011;23991;52.430;10.586;2023-02-24T00:24:09;28.17;;;3.33;;
38182;SDS011;23991;52.430;10.586;2023-02-24T00:26:35;23.85;;;3.60;;
38182;SDS011;23991;52.430;10.586;2023-02-24T00:29:03;16.77;;;2.75;;
38182;SDS011;23991;52.430;10.586;2023-02-24T00:31:29;16.35;;;3.50;;
38182;SDS011;23991;52.430;10.586;2023-02-24T00:33:56;18.45;;;3.30;;
38182;SDS011;23991;52.430;10.586;2023-02-24T00:36:22;22.13;;;3.45;;
38182;SDS011;23991;52.430;10.586;2023-02-24T00:38:50;15.07;;;3.03;;
38182;SDS011;23991;52.430;10.586;2023-02-24T00:41:19;12.80;;;2.60;;
38182;SDS011;23991;52.430;10.586;2023-02-24T00:43:48;17.95;;;3.00;;
38182;SDS011;23991;52.430;10.586;2023-02-24T00:46:18;16.27;;;3.15;;
38182;SDS011;23991;52.430;10.586;2023-02-24T00:48:45;15.60;;;4.15;;
38182;SDS011;23991;52.430;10.586;2023-02-24T00:51:12;13.55;;;2.67;;
38182;SDS011;23991;52.430;10.586;2023-02-24T00:53:40;14.63;;;2.78;;
38182;SDS011;23991;52.430;10.586;2023-02-24T00:56:07;16.10;;;3.67;;
38182;SDS011;23991;52.430;10.586;2023-02-24T00:58:36;16.15;;;2.60;;
38182;SDS011;23991;52.430;10.586;2023-02-24T01:01:10;18.15;;;3.03;;
38182;SDS011;23991;52.430;10.586;2023-02-24T01:03:38;20.45;;;3.03;;
38182;SDS011;23991;52.430;10.586;2023-02-24T01:06:03;16.25;;;2.92;;
38182;SDS011;23991;52.430;10.586;2023-02-24T01:08:30;15.50;;;3.92;;
38182;SDS011;23991;52.430;10.586;2023-02-24T01:11:00;14.18;;;2.45;;
38182;SDS011;23991;52.430;10.586;2023-02-24T01:13:46;18.05;;;3.17;;
38182;SDS011;23991;52.430;10.586;2023-02-24T01:16:12;15.05;;;3.03;;
38182;SDS011;23991;52.430;10.586;2023-02-24T01:18:39;13.70;;;3.08;;
38182;SDS011;23991;52.430;10.586;2023-02-24T01:21:05;12.70;;;2.58;;
38182;SDS011;23991;52.430;10.586;2023-02-24T01:23:31;14.55;;;2.53;;
38182;SDS011;23991;52.430;10.586;2023-02-24T01:25:57;12.18;;;2.63;;
38182;SDS011;23991;52.430;10.586;2023-02-24T01:28:24;14.40;;;2.63;;
38182;SDS011;23991;52.430;10.586;2023-02-24T01:30:50;23.23;;;3.10;;
38182;SDS011;23991;52.430;10.586;2023-02-24T01:33:17;13.45;;;3.40;;
38182;SDS011;23991;52.430;10.586;2023-02-24T01:35:42;15.98;;;2.75;;
38182;SDS011;23991;52.430;10.586;2023-02-24T01:38:08;13.88;;;2.75;;
38182;SDS011;23991;52.430;10.586;2023-02-24T01:40:35;22.00;;;2.78;;
38182;SDS011;23991;52.430;10.586;2023-02-24T01:43:00;9.27;;;2.70;;
38182;SDS011;23991;52.430;10.586;2023-02-24T01:45:27;15.63;;;3.78;;
38182;SDS011;23991;52.430;10.586;2023-02-24T01:47:56;10.35;;;2.35;;
38182;SDS011;23991;52.430;10.586;2023-02-24T01:50:25;22.15;;;4.18;;
38182;SDS011;23991;52.430;10.586;2023-02-24T01:52:54;17.17;;;3.65;;
38182;SDS011;23991;52.430;10.586;2023-02-24T01:55:32;22.58;;;3.10;;
38182;SDS011;23991;52.430;10.586;2023-02-24T01:58:03;13.07;;;3.20;;
38182;SDS011;23991;52.430;10.586;2023-02-24T02:00:34;12.82;;;3.00;;
38182;SDS011;23991;52.430;10.586;2023-02-24T02:03:12;15.13;;;2.88;;
38182;SDS011;23991;52.430;10.586;2023-02-24T02:05:51;13.40;;;2.78;;
38182;SDS011;23991;52.430;10.586;2023-02-24T02:08:20;16.92;;;3.47;;
38182;SDS011;23991;52.430;10.586;2023-02-24T02:10:47;13.60;;;2.33;;
38182;SDS011;23991;52.430;10.586;2023-02-24T02:13:14;19.65;;;4.47;;
38182;SDS011;23991;52.430;10.586;2023-02-24T02:15:54;13.43;;;2.90;;
38182;SDS011;23991;52.430;10.586;2023-02-24T02:24:24;12.18;;;2.28;;
38182;SDS011;23991;52.430;10.586;2023-02-24T02:30:16;17.83;;;3.28;;
38182;SDS011;23991;52.430;10.586;2023-02-24T02:35:21;19.27;;;2.75;;
38182;SDS011;23991;52.430;10.586;2023-02-24T02:45:42;17.83;;;2.90;;
38182;SDS011;23991;52.430;10.586;2023-02-24T02:48:31;16.92;;;2.55;;
38182;SDS011;23991;52.430;10.586;2023-02-24T02:51:06;19.90;;;3.15;;
38182;SDS011;23991;52.430;10.586;2023-02-24T02:53:43;12.02;;;2.88;;
38182;SDS011;23991;52.430;10.586;2023-02-24T02:56:27;21.13;;;2.58;;
38182;SDS011;23991;52.430;10.586;2023-02-24T02:59:12;12.00;;;2.42;;
38182;SDS011;23991;52.430;10.586;2023-02-24T03:01:46;8.73;;;2.33;;
38182;SDS011;23991;52.430;10.586;2023-02-24T03:04:13;16.58;;;2.60;;
38182;SDS011;23991;52.430;10.586;2023-02-24T03:06:44;15.55;;;2.95;;
38182;SDS011;23991;52.430;10.586;2023-02-24T03:11:42;11.00;;;2.28;;
38182;SDS011;23991;52.430;10.586;2023-02-24T03:14:12;12.75;;;2.45;;
38182;SDS011;23991;52.430;10.586;2023-02-24T03:16:40;14.75;;;2.40;;
38182;SDS011;23991;52.430;10.586;2023-02-24T03:19:10;13.75;;;2.40;;
38182;SDS011;23991;52.430;10.586;2023-02-24T03:21:43;12.88;;;2.60;;
38182;SDS011;23991;52.430;10.586;2023-02-24T03:24:10;10.52;;;2.38;;
38182;SDS011;23991;52.430;10.586;2023-02-24T03:26:40;11.30;;;2.35;;
38182;SDS011;23991;52.430;10.586;2023-02-24T03:31:51;25.27;;;3.63;;
38182;SDS011;23991;52.430;10.586;2023-02-24T03:36:55;11.23;;;1.88;;
38182;SDS011;23991;52.430;10.586;2023-02-24T03:39:22;9.55;;;2.30;;
38182;SDS011;23991;52.430;10.586;2023-02-24T03:41:53;11.48;;;3.38;;
38182;SDS011;23991;52.430;10.586;2023-02-24T03:44:22;12.93;;;3.65;;
38182;SDS011;23991;52.430;10.586;2023-02-24T03:46:49;8.38;;;2.08;;
38182;SDS011;23991;52.430;10.586;2023-02-24T03:49:16;7.18;;;2.00;;
38182;SDS011;23991;52.430;10.586;2023-02-24T03:51:54;9.45;;;2.50;;
38182;SDS011;23991;52.430;10.586;2023-02-24T04:00:18;12.77;;;2.50;;
38182;SDS011;23991;52.430;10.586;2023-02-24T04:06:07;10.43;;;2.00;;
38182;SDS011;23991;52.430;10.586;2023-02-24T04:08:37;6.50;;;2.35;;
38182;SDS011;23991;52.430;10.586;2023-02-24T04:11:13;7.40;;;2.03;;
38182;SDS011;23991;52.430;10.586;2023-02-24T04:13:48;6.90;;;2.20;;
38182;SDS011;23991;52.430;10.586;2023-02-24T04:19:24;10.48;;;1.90;;
38182;SDS011;23991;52.430;10.586;2023-02-24T04:21:53;11.68;;;2.38;;
38182;SDS011;23991;52.430;10.586;2023-02-24T04:24:20;11.02;;;1.85;;
38182;SDS011;23991;52.430;10.586;2023-02-24T04:26:51;6.40;;;1.83;;
38182;SDS011;23991;52.430;10.586;2023-02-24T04:29:22;12.27;;;2.42;;
38182;SDS011;23991;52.430;10.586;2023-02-24T04:31:51;10.50;;;2.00;;
38182;SDS011;23991;52.430;10.586;2023-02-24T04:34:21;15.02;;;2.30;;
38182;SDS011;23991;52.430;10.586;2023-02-24T04:36:48;13.07;;;2.47;;
38182;SDS011;23991;52.430;10.586;2023-02-24T04:39:17;9.55;;;1.80;;
38182;SDS011;23991;52.430;10.586;2023-02-24T04:41:46;6.57;;;1.67;;
38182;SDS011;23991;52.430;10.586;2023-02-24T04:44:16;6.90;;;1.88;;
38182;SDS011;23991;52.430;10.586;2023-02-24T04:46:43;9.43;;;2.50;;
38182;SDS011;23991;52.430;10.586;2023-02-24T04:49:16;11.18;;;2.72;;
38182;SDS011;23991;52.430;10.586;2023-02-24T04:51:43;9.55;;;2.92;;
38182;SDS011;23991;52.430;10.586;2023-02-24T04:54:10;10.55;;;1.83;;
38182;SDS011;23991;52.430;10.586;2023-02-24T04:56:41;13.00;;;2.00;;
38182;SDS011;23991;52.430;10.586;2023-02-24T04:59:18;11.48;;;2.10;;
38182;SDS011;23991;52.430;10.586;2023-02-24T05:01:44;15.00;;;2.35;;
38182;SDS011;23991;52.430;10.586;2023-02-24T05:04:11;9.90;;;2.47;;
38182;SDS011;23991;52.430;10.586;2023-02-24T05:06:39;9.27;;;2.22;;
38182;SDS011;23991;52.430;10.586;2023-02-24T05:11:44;15.07;;;2.80;;
38182;SDS011;23991;52.430;10.586;2023-02-24T05:14:12;7.85;;;2.83;;
38182;SDS011;23991;52.430;10.586;2023-02-24T05:16:39;9.55;;;2.28;;
38182;SDS011;23991;52.430;10.586;2023-02-24T05:19:09;16.33;;;3.67;;
38182;SDS011;23991;52.430;10.586;2023-02-24T05:21:58;9.95;;;1.95;;
38182;SDS011;23991;52.430;10.586;2023-02-24T05:24:27;7.40;;;1.95;;
38182;SDS011;23991;52.430;10.586;2023-02-24T05:26:54;11.02;;;2.25;;
38182;SDS011;23991;52.430;10.586;2023-02-24T05:29:27;6.53;;;1.80;;
38182;SDS011;23991;52.430;10.586;2023-02-24T05:31:54;8.52;;;2.00;;
38182;SDS011;23991;52.430;10.586;2023-02-24T05:34:23;11.63;;;2.70;;
38182;SDS011;23991;52.430;10.586;2023-02-24T05:36:51;10.60;;;2.95;;
38182;SDS011;23991;52.430;10.586;2023-02-24T05:39:17;9.38;;;2.15;;
38182;SDS011;23991;52.430;10.586;2023-02-24T05:41:44;7.63;;;1.98;;
38182;SDS011;23991;52.430;10.586;2023-02-24T05:44:14;8.25;;;2.22;;
38182;SDS011;23991;52.430;10.586;2023-02-24T05:46:42;6.63;;;1.83;;
38182;SDS011;23991;52.430;10.586;2023-02-24T05:51:38;11.17;;;3.83;;
38182;SDS011;23991;52.430;10.586;2023-02-24T05:54:08;9.40;;;2.05;;
38182;SDS011;23991;52.430;10.586;2023-02-24T05:56:38;9.68;;;2.10;;
38182;SDS011;23991;52.430;10.586;2023-02-24T05:59:09;7.07;;;1.90;;
38182;SDS011;23991;52.430;10.586;2023-02-24T06:01:38;7.22;;;2.33;;
38182;SDS011;23991;52.430;10.586;2023-02-24T06:04:09;11.07;;;2.15;;
38182;SDS011;23991;52.430;10.586;2023-02-24T06:06:45;10.07;;;1.88;;
38182;SDS011;23991;52.430;10.586;2023-02-24T06:09:16;10.57;;;2.30;;
38182;SDS011;23991;52.430;10.586;2023-02-24T06:11:43;6.45;;;1.52;;
38182;SDS011;23991;52.430;10.586;2023-02-24T06:14:09;8.63;;;2.35;;
38182;SDS011;23991;52.430;10.586;2023-02-24T06:16:36;9.23;;;1.90;;
38182;SDS011;23991;52.430;10.586;2023-02-24T06:19:04;9.15;;;1.70;;
38182;SDS011;23991;52.430;10.586;2023-02-24T06:21:30;10.27;;;2.08;;
38182;SDS011;23991;52.430;10.586;2023-02-24T06:23:56;6.43;;;1.67;;
38182;SDS011;23991;52.430;10.586;2023-02-24T06:26:23;8.57;;;2.05;;
38182;SDS011;23991;52.430;10.586;2023-02-24T06:28:53;10.80;;;1.88;;
38182;SDS011;23991;52.430;10.586;2023-02-24T06:31:20;9.70;;;2.92;;
38182;SDS011;23991;52.430;10.586;2023-02-24T06:33:46;9.45;;;1.45;;
38182;SDS011;23991;52.430;10.586;2023-02-24T06:36:12;7.93;;;1.77;;
38182;SDS011;23991;52.430;10.586;2023-02-24T06:38:38;6.13;;;1.58;;
38182;SDS011;23991;52.430;10.586;2023-02-24T06:41:05;7.13;;;1.83;;
38182;SDS011;23991;52.430;10.586;2023-02-24T06:43:35;7.50;;;2.60;;
38182;SDS011;23991;52.430;10.586;2023-02-24T06:46:03;11.18;;;2.60;;
38182;SDS011;23991;52.430;10.586;2023-02-24T06:48:30;10.48;;;2.70;;
38182;SDS011;23991;52.430;10.586;2023-02-24T06:50:57;10.30;;;2.05;;
38182;SDS011;23991;52.430;10.586;2023-02-24T06:53:27;7.80;;;1.52;;
38182;SDS011;23991;52.430;10.586;2023-02-24T06:55:53;8.70;;;2.22;;
38182;SDS011;23991;52.430;10.586;2023-02-24T06:58:20;9.40;;;2.05;;
38182;SDS011;23991;52.430;10.586;2023-02-24T07:00:48;9.65;;;1.95;;
38182;SDS011;23991;52.430;10.586;2023-02-24T07:03:28;8.77;;;1.83;;
38182;SDS011;23991;52.430;10.586;2023-02-24T07:06:04;8.18;;;2.20;;
38182;SDS011;23991;52.430;10.586;2023-02-24T07:08:47;9.85;;;2.10;;
38182;SDS011;23991;52.430;10.586;2023-02-24T07:11:15;6.95;;;1.48;;
38182;SDS011;23991;52.430;10.586;2023-02-24T07:13:47;8.80;;;1.65;;
38182;SDS011;23991;52.430;10.586;2023-02-24T07:16:13;6.90;;;1.75;;
38182;SDS011;23991;52.430;10.586;2023-02-24T07:18:41;7.82;;;2.28;;
38182;SDS011;23991;52.430;10.586;2023-02-24T07:21:11;7.75;;;1.45;;
38182;SDS011;23991;52.430;10.586;2023-02-24T07:23:37;7.90;;;2.03;;
38182;SDS011;23991;52.430;10.586;2023-02-24T07:26:14;7.70;;;1.90;;
38182;SDS011;23991;52.430;10.586;2023-02-24T07:28:42;7.82;;;2.08;;
38182;SDS011;23991;52.430;10.586;2023-02-24T07:31:09;10.85;;;2.22;;
38182;SDS011;23991;52.430;10.586;2023-02-24T07:33:38;6.75;;;1.67;;
38182;SDS011;23991;52.430;10.586;2023-02-24T07:36:05;4.55;;;1.50;;
38182;SDS011;23991;52.430;10.586;2023-02-24T07:38:35;3.25;;;1.25;;
38182;SDS011;23991;52.430;10.586;2023-02-24T07:41:02;5.30;;;1.70;;
38182;SDS011;23991;52.430;10.586;2023-02-24T07:43:30;7.25;;;1.92;;
38182;SDS011;23991;52.430;10.586;2023-02-24T07:46:09;7.53;;;1.50;;
38182;SDS011;23991;52.430;10.586;2023-02-24T07:48:37;8.27;;;1.58;;
38182;SDS011;23991;52.430;10.586;2023-02-24T07:51:09;8.25;;;1.63;;
38182;SDS011;23991;52.430;10.586;2023-02-24T07:53:36;11.15;;;1.70;;
38182;SDS011;23991;52.430;10.586;2023-02-24T07:56:04;6.80;;;1.65;;
38182;SDS011;23991;52.430;10.586;2023-02-24T07:58:43;5.78;;;1.77;;
38182;SDS011;23991;52.430;10.586;2023-02-24T08:01:10;8.43;;;1.90;;
38182;SDS011;23991;52.430;10.586;2023-02-24T08:03:42;5.57;;;1.67;;
38182;SDS011;23991;52.430;10.586;2023-02-24T08:06:08;6.22;;;1.90;;
38182;SDS011;23991;52.430;10.586;2023-02-24T08:08:40;10.88;;;1.60;;
38182;SDS011;23991;52.430;10.586;2023-02-24T08:11:31;6.65;;;2.45;;
38182;SDS011;23991;52.430;10.586;2023-02-24T08:14:06;4.53;;;1.40;;
38182;SDS011;23991;52.430;10.586;2023-02-24T08:16:38;7.85;;;2.05;;
38182;SDS011;23991;52.430;10.586;2023-02-24T08:19:09;5.63;;;1.88;;
38182;SDS011;23991;52.430;10.586;2023-02-24T08:21:45;6.47;;;2.00;;
38182;SDS011;23991;52.430;10.586;2023-02-24T08:24:14;13.05;;;1.88;;
38182;SDS011;23991;52.430;10.586;2023-02-24T08:26:48;7.70;;;1.50;;
38182;SDS011;23991;52.430;10.586;2023-02-24T08:29:32;5.20;;;1.17;;
38182;SDS011;23991;52.430;10.586;2023-02-24T08:32:04;7.07;;;1.50;;
38182;SDS011;23991;52.430;10.586;2023-02-24T08:34:30;7.30;;;1.55;;
38182;SDS011;23991;52.430;10.586;2023-02-24T08:36:56;5.28;;;1.92;;
38182;SDS011;23991;52.430;10.586;2023-02-24T08:39:22;8.27;;;1.70;;
38182;SDS011;23991;52.430;10.586;2023-02-24T08:41:48;5.32;;;1.70;;
38182;SDS011;23991;52.430;10.586;2023-02-24T08:44:18;3.72;;;1.92;;
38182;SDS011;23991;52.430;10.586;2023-02-24T08:46:45;9.98;;;2.33;;
38182;SDS011;23991;52.430;10.586;2023-02-24T08:49:13;7.10;;;1.52;;
38182;SDS011;23991;52.430;10.586;2023-02-24T08:51:41;6.00;;;1.52;;
38182;SDS011;23991;52.430;10.586;2023-02-24T08:54:14;4.72;;;1.88;;
38182;SDS011;23991;52.430;10.586;2023-02-24T08:56:45;6.40;;;1.50;;
38182;SDS011;23991;52.430;10.586;2023-02-24T08:59:20;6.68;;;1.63;;
38182;SDS011;23991;52.430;10.586;2023-02-24T09:02:18;8.32;;;1.77;;
38182;SDS011;23991;52.430;10.586;2023-02-24T09:04:51;3.47;;;1.40;;
38182;SDS011;23991;52.430;10.586;2023-02-24T09:07:20;7.30;;;2.08;;
38182;SDS011;23991;52.430;10.586;2023-02-24T09:09:54;9.40;;;1.55;;
38182;SDS011;23991;52.430;10.586;2023-02-24T09:12:24;3.95;;;1.33;;
38182;SDS011;23991;52.430;10.586;2023-02-24T09:15:02;6.80;;;1.70;;
38182;SDS011;23991;52.430;10.586;2023-02-24T09:17:31;7.30;;;1.70;;
38182;SDS011;23991;52.430;10.586;2023-02-24T09:20:04;7.10;;;1.20;;
38182;SDS011;23991;52.430;10.586;2023-02-24T09:22:53;7.75;;;2.00;;
38182;SDS011;23991;52.430;10.586;2023-02-24T09:25:24;5.88;;;1.40;;
38182;SDS011;23991;52.430;10.586;2023-02-24T09:28:05;10.63;;;2.42;;
38182;SDS011;23991;52.430;10.586;2023-02-24T09:30:45;4.60;;;1.33;;
38182;SDS011;23991;52.430;10.586;2023-02-24T09:33:23;7.13;;;1.63;;
38182;SDS011;23991;52.430;10.586;2023-02-24T09:36:06;6.45;;;1.80;;
38182;SDS011;23991;52.430;10.586;2023-02-24T09:53:14;5.82;;;1.40;;
38182;SDS011;23991;52.430;10.586;2023-02-24T09:55:58;11.32;;;1.80;;
38182;SDS011;23991;52.430;10.586;2023-02-24T10:01:22;4.40;;;1.67;;
38182;SDS011;23991;52.430;10.586;2023-02-24T10:09:30;11.73;;;1.85;;
38182;SDS011;23991;52.430;10.586;2023-02-24T10:12:07;8.70;;;1.90;;
38182;SDS011;23991;52.430;10.586;2023-02-24T10:17:50;13.27;;;1.90;;
38182;SDS011;23991;52.430;10.586;2023-02-24T10:20:20;11.05;;;1.83;;
38182;SDS011;23991;52.430;10.586;2023-02-24T10:23:11;8.50;;;1.80;;
38182;SDS011;23991;52.430;10.586;2023-02-24T10:26:07;8.52;;;2.20;;
38182;SDS011;23991;52.430;10.586;2023-02-24T10:29:14;7.05;;;1.73;;
38182;SDS011;23991;52.430;10.586;2023-02-24T10:34:41;7.95;;;2.05;;
38182;SDS011;23991;52.430;10.586;2023-02-24T10:37:15;5.93;;;2.95;;
38182;SDS011;23991;52.430;10.586;2023-02-24T10:39:46;9.90;;;2.22;;
38182;SDS011;23991;52.430;10.586;2023-02-24T10:44:50;6.97;;;1.92;;
38182;SDS011;23991;52.430;10.586;2023-02-24T10:47:51;9.15;;;2.10;;
38182;SDS011;23991;52.430;10.586;2023-02-24T10:50:17;9.07;;;2.35;;
38182;SDS011;23991;52.430;10.586;2023-02-24T10:52:46;6.18;;;2.17;;
38182;SDS011;23991;52.430;10.586;2023-02-24T10:58:16;6.55;;;2.10;;
38182;SDS011;23991;52.430;10.586;2023-02-24T11:00:53;6.05;;;2.10;;
38182;SDS011;23991;52.430;10.586;2023-02-24T11:06:27;9.68;;;2.58;;
38182;SDS011;23991;52.430;10.586;2023-02-24T11:09:16;15.88;;;2.80;;
38182;SDS011;23991;52.430;10.586;2023-02-24T11:11:57;6.85;;;2.50;;
38182;SDS011;23991;52.430;10.586;2023-02-24T11:14:51;6.57;;;2.33;;
38182;SDS011;23991;52.430;10.586;2023-02-24T11:17:48;5.22;;;2.05;;
38182;SDS011;23991;52.430;10.586;2023-02-24T11:22:52;8.40;;;2.10;;
38182;SDS011;23991;52.430;10.586;2023-02-24T11:25:33;10.38;;;2.55;;
38182;SDS011;23991;52.430;10.586;2023-02-24T11:28:03;9.88;;;2.15;;
38182;SDS011;23991;52.430;10.586;2023-02-24T11:33:27;6.57;;;1.98;;
38182;SDS011;23991;52.430;10.586;2023-02-24T11:39:19;7.00;;;2.35;;
38182;SDS011;23991;52.430;10.586;2023-02-24T11:41:54;7.55;;;2.17;;
38182;SDS011;23991;52.430;10.586;2023-02-24T11:44:26;6.90;;;1.80;;
38182;SDS011;23991;52.430;10.586;2023-02-24T11:47:00;5.82;;;2.35;;
38182;SDS011;23991;52.430;10.586;2023-02-24T11:52:03;9.75;;;2.60;;
38182;SDS011;23991;52.430;10.586;2023-02-24T11:54:37;6.45;;;2.28;;
38182;SDS011;23991;52.430;10.586;2023-02-24T11:57:50;7.32;;;2.42;;
38182;SDS011;23991;52.430;10.586;2023-02-24T12:00:04;4.22;;;1.63;;
38182;SDS011;23991;52.430;10.586;2023-02-24T12:02:46;4.97;;;1.83;;
38182;SDS011;23991;52.430;10.586;2023-02-24T12:05:19;4.53;;;1.60;;
38182;SDS011;23991;52.430;10.586;2023-02-24T12:07:52;6.90;;;1.92;;
38182;SDS011;23991;52.430;10.586;2023-02-24T12:10:23;5.38;;;1.92;;
38182;SDS011;23991;52.430;10.586;2023-02-24T12:15:49;6.03;;;1.98;;
38182;SDS011;23991;52.430;10.586;2023-02-24T12:18:32;5.72;;;2.40;;
38182;SDS011;23991;52.430;10.586;2023-02-24T12:21:04;6.88;;;1.98;;
38182;SDS011;23991;52.430;10.586;2023-02-24T12:23:35;8.00;;;2.17;;
38182;SDS011;23991;52.430;10.586;2023-02-24T12:40:54;3.40;;;1.83;;
38182;SDS011;23991;52.430;10.586;2023-02-24T12:46:20;5.85;;;1.88;;
38182;SDS011;23991;52.430;10.586;2023-02-24T12:54:16;4.13;;;1.90;;
38182;SDS011;23991;52.430;10.586;2023-02-24T12:56:54;3.25;;;1.48;;
38182;SDS011;23991;52.430;10.586;2023-02-24T12:59:31;3.60;;;1.67;;
38182;SDS011;23991;52.430;10.586;2023-02-24T13:02:05;3.40;;;1.80;;
38182;SDS011;23991;52.430;10.586;2023-02-24T13:04:48;2.40;;;1.52;;
38182;SDS011;23991;52.430;10.586;2023-02-24T13:13:55;3.35;;;1.67;;
38182;SDS011;23991;52.430;10.586;2023-02-24T13:16:30;3.03;;;1.70;;
38182;SDS011;23991;52.430;10.586;2023-02-24T13:24:37;5.93;;;1.77;;
38182;SDS011;23991;52.430;10.586;2023-02-24T13:27:20;3.55;;;1.95;;
38182;SDS011;23991;52.430;10.586;2023-02-24T13:32:36;2.95;;;2.00;;
38182;SDS011;23991;52.430;10.586;2023-02-24T13:37:38;4.20;;;2.00;;
38182;SDS011;23991;52.430;10.586;2023-02-24T13:43:04;3.30;;;2.20;;
38182;SDS011;23991;52.430;10.586;2023-02-24T13:48:16;4.13;;;3.45;;
38182;SDS011;23991;52.430;10.586;2023-02-24T13:59:38;4.30;;;2.90;;
38182;SDS011;23991;52.430;10.586;2023-02-24T14:02:17;4.88;;;2.90;;
38182;SDS011;23991;52.430;10.586;2023-02-24T14:04:49;4.00;;;3.28;;
38182;SDS011;23991;52.430;10.586;2023-02-24T14:07:18;3.72;;;2.80;;
38182;SDS011;23991;52.430;10.586;2023-02-24T14:09:47;3.60;;;2.85;;
38182;SDS011;23991;52.430;10.586;2023-02-24T14:12:18;3.65;;;2.90;;
38182;SDS011;23991;52.430;10.586;2023-02-24T14:14:45;5.20;;;2.60;;
38182;SDS011;23991;52.430;10.586;2023-02-24T14:20:38;4.00;;;3.17;;
38182;SDS011;23991;52.430;10.586;2023-02-24T14:22:47;4.13;;;3.00;;
38182;SDS011;23991;52.430;10.586;2023-02-24T14:25:17;5.45;;;2.97;;
38182;SDS011;23991;52.430;10.586;2023-02-24T14:27:44;4.20;;;3.13;;
38182;SDS011;23991;52.430;10.586;2023-02-24T14:30:30;3.72;;;3.15;;
38182;SDS011;23991;52.430;10.586;2023-02-24T14:32:56;5.03;;;3.70;;
38182;SDS011;23991;52.430;10.586;2023-02-24T14:35:25;4.25;;;3.47;;
38182;SDS011;23991;52.430;10.586;2023-02-24T14:38:00;4.43;;;3.60;;
38182;SDS011;23991;52.430;10.586;2023-02-24T14:40:26;4.93;;;3.20;;
38182;SDS011;23991;52.430;10.586;2023-02-24T14:42:53;5.72;;;3.42;;
38182;SDS011;23991;52.430;10.586;2023-02-24T14:45:22;3.63;;;3.25;;
38182;SDS011;23991;52.430;10.586;2023-02-24T14:47:50;4.53;;;3.20;;
38182;SDS011;23991;52.430;10.586;2023-02-24T14:50:18;4.85;;;3.50;;
38182;SDS011;23991;52.430;10.586;2023-02-24T14:52:49;3.75;;;3.35;;
38182;SDS011;23991;52.430;10.586;2023-02-24T14:55:30;4.78;;;3.92;;
38182;SDS011;23991;52.430;10.586;2023-02-24T14:58:11;4.45;;;3.50;;
38182;SDS011;23991;52.430;10.586;2023-02-24T15:01:00;6.60;;;3.67;;
38182;SDS011;23991;52.430;10.586;2023-02-24T15:03:31;5.63;;;3.72;;
38182;SDS011;23991;52.430;10.586;2023-02-24T15:06:11;4.13;;;3.40;;
38182;SDS011;23991;52.430;10.586;2023-02-24T15:08:42;3.60;;;3.28;;
38182;SDS011;23991;52.430;10.586;2023-02-24T15:13:42;4.78;;;3.35;;
38182;SDS011;23991;52.430;10.586;2023-02-24T15:18:49;4.72;;;3.30;;
38182;SDS011;23991;52.430;10.586;2023-02-24T15:21:33;4.88;;;3.40;;
38182;SDS011;23991;52.430;10.586;2023-02-24T15:26:50;4.15;;;3.33;;
38182;SDS011;23991;52.430;10.586;2023-02-24T15:29:20;5.15;;;3.38;;
38182;SDS011;23991;52.430;10.586;2023-02-24T15:31:52;4.03;;;3.55;;
38182;SDS011;23991;52.430;10.586;2023-02-24T15:34:37;5.03;;;3.25;;
38182;SDS011;23991;52.430;10.586;2023-02-24T15:37:12;6.03;;;3.30;;
38182;SDS011;23991;52.430;10.586;2023-02-24T15:39:46;4.45;;;3.58;;
38182;SDS011;23991;52.430;10.586;2023-02-24T15:42:22;5.43;;;3.25;;
38182;SDS011;23991;52.430;10.586;2023-02-24T15:47:24;4.90;;;3.60;;
38182;SDS011;23991;52.430;10.586;2023-02-24T15:49:51;4.82;;;3.85;;
38182;SDS011;23991;52.430;10.586;2023-02-24T15:52:26;6.10;;;3.70;;
38182;SDS011;23991;52.430;10.586;2023-02-24T15:54:53;7.63;;;3.90;;
38182;SDS011;23991;52.430;10.586;2023-02-24T15:57:20;4.28;;;3.80;;
38182;SDS011;23991;52.430;10.586;2023-02-24T15:59:46;5.47;;;4.15;;
38182;SDS011;23991;52.430;10.586;2023-02-24T16:02:13;8.25;;;4.30;;
38182;SDS011;23991;52.430;10.586;2023-02-24T16:04:42;4.97;;;4.00;;
38182;SDS011;23991;52.430;10.586;2023-02-24T16:07:14;5.15;;;4.63;;
38182;SDS011;23991;52.430;10.586;2023-02-24T16:09:46;8.52;;;4.82;;
38182;SDS011;23991;52.430;10.586;2023-02-24T16:12:15;11.40;;;4.57;;
38182;SDS011;23991;52.430;10.586;2023-02-24T16:14:44;6.93;;;4.70;;
38182;SDS011;23991;52.430;10.586;2023-02-24T16:17:32;8.77;;;4.80;;
38182;SDS011;23991;52.430;10.586;2023-02-24T16:19:59;7.82;;;4.88;;
38182;SDS011;23991;52.430;10.586;2023-02-24T16:22:26;12.60;;;4.75;;
38182;SDS011;23991;52.430;10.586;2023-02-24T16:24:52;9.70;;;5.20;;
38182;SDS011;23991;52.430;10.586;2023-02-24T16:27:19;8.77;;;4.65;;
38182;SDS011;23991;52.430;10.586;2023-02-24T16:29:47;7.73;;;4.50;;
38182;SDS011;23991;52.430;10.586;2023-02-24T16:34:45;10.40;;;5.20;;
38182;SDS011;23991;52.430;10.586;2023-02-24T16:37:18;8.50;;;4.55;;
38182;SDS011;23991;52.430;10.586;2023-02-24T16:39:45;8.70;;;5.15;;
38182;SDS011;23991;52.430;10.586;2023-02-24T16:42:11;7.28;;;5.32;;
38182;SDS011;23991;52.430;10.586;2023-02-24T16:44:37;7.75;;;5.78;;
38182;SDS011;23991;52.430;10.586;2023-02-24T16:47:04;7.68;;;5.80;;
38182;SDS011;23991;52.430;10.586;2023-02-24T16:49:30;9.85;;;5.97;;
38182;SDS011;23991;52.430;10.586;2023-02-24T16:51:56;13.20;;;6.00;;
38182;SDS011;23991;52.430;10.586;2023-02-24T16:54:22;12.18;;;6.55;;
38182;SDS011;23991;52.430;10.586;2023-02-24T16:56:53;10.70;;;5.85;;
38182;SDS011;23991;52.430;10.586;2023-02-24T16:59:19;7.28;;;5.95;;
38182;SDS011;23991;52.430;10.586;2023-02-24T17:01:45;9.10;;;6.18;;
38182;SDS011;23991;52.430;10.586;2023-02-24T17:04:10;12.05;;;6.40;;
38182;SDS011;23991;52.430;10.586;2023-02-24T17:06:38;8.85;;;6.75;;
38182;SDS011;23991;52.430;10.586;2023-02-24T17:09:04;8.07;;;6.20;;
38182;SDS011;23991;52.430;10.586;2023-02-24T17:11:29;9.98;;;6.78;;
38182;SDS011;23991;52.430;10.586;2023-02-24T17:13:55;18.13;;;6.95;;
38182;SDS011;23991;52.430;10.586;2023-02-24T17:16:20;11.30;;;7.57;;
38182;SDS011;23991;52.430;10.586;2023-02-24T17:18:46;11.48;;;6.68;;
38182;SDS011;23991;52.430;10.586;2023-02-24T17:21:12;9.50;;;6.40;;
38182;SDS011;23991;52.430;10.586;2023-02-24T17:23:39;10.38;;;6.53;;
38182;SDS011;23991;52.430;10.586;2023-02-24T17:26:06;12.75;;;7.13;;
38182;SDS011;23991;52.430;10.586;2023-02-24T17:28:34;10.90;;;7.03;;
38182;SDS011;23991;52.430;10.586;2023-02-24T17:30:59;10.48;;;7.25;;
38182;SDS011;23991;52.430;10.586;2023-02-24T17:33:25;12.10;;;7.57;;
38182;SDS011;23991;52.430;10.586;2023-02-24T17:35:51;11.65;;;7.28;;
38182;SDS011;23991;52.430;10.586;2023-02-24T17:38:17;13.20;;;7.63;;
38182;SDS011;23991;52.430;10.586;2023-02-24T17:40:45;14.32;;;7.70;;